KMCC METAR and TAF | Updated Today

KMCC METAR

Mc Clellan Airfield

Observation time: 22 min. ago

KMCC 200435Z AUTO 18007KT 10SM CLR 28/13 A2969 RMK AO2

Need help? Read our tutorial on how to read METARs or read the parsed version below.

Mc Clellan Airfield (KMCC) METAR

  • Weather conditions on Sat, 20 Aug 2022 04:35:00 +0000 (22 min. ago):
  • Present conditions: Dry
  • Clouds: Clear skies
  • Visibility: 16093 meters
  • Wind: 180 degrees at 7 knots
  • Temperature: 28 celsius
  • Dew point: 13 celsius
  • Pressure: 29.69 inHg
  • Remarks: AO2


Useful to know...

KMCC TAF

Mc Clellan Airfield

KMCC 192330Z 2000/2024 20010KT P6SM SKC FM200400 15008KT P6SM SKC FM201900 21005KT P6SM SKC
Observation time: 5:27 hr. ago
Need help? Read our tutorial on how to read TAFs or read the parsed version below.

Parsed version of TAF for Mc Clellan Airfield (KMCC)

  • From 20 August at 00:00 UTC, to day 20 of the month at 24:00 UTC
  • Clouds: No significant changes expected
  • Wind: 200 degrees at 10
  • From day 20 of the month at 04:00 UTC
  • Clouds: No significant changes expected
  • Wind: 150 degrees at 8
  • From day 20 of the month at 19:00 UTC
  • Clouds: No significant changes expected
  • Wind: 210 degrees at 5